Felker Army Air Field Fort Eustis US
ICAO: KFAF
IATA: FAF
Category: Medium
Scheduled Services: No

Elevation: 12 ft
TransAlt. 18000 ft.

Airport Communications:
NORFOLK APP/DEP:125.7
CTAF:126.3
GND:121.35
BASE OPS:134.1
PMSV METRO:134.1
TWR:126.3

KFAF Zoom In..

If you have problems with the map follow the link
https://www.worldairports.se/pages/airport.php?
ICAO=KFAF

Runways:

(A) RW 14 length 3025 ft width 75 ft
---- / hdg 139

(B) RW 32 length 3025 ft width 75 ft
---- / hdg 319

Location; KFAF
Day. 11 / Time. 13.19 Zulu
* Altimeter: 30.35
* Temperature: 02° c. 35.6°f.
* Wind from: 020° Speed 08 kn.
Dewpoint: -01° c.
Visibility: 10 Statute Miles.
Clouds: Overcast 3400 ft.

KFAF 111319Z 02008KT 10SM OVC034 02/M01 A3035 RMK AO2A DZB09E19 SLP281 $


Wind From 020°
Speed 08 kn.

 
 
jpsmedia worldairports.se 2019   terms of use